sensor_id;sensor_type;location;lat;lon;timestamp;pressure;altitude;pressure_sealevel;temperature;humidity
54978;BME280;40873;47.522;19.106;2023-04-15T00:01:00;99314.88;;;5.47;100.00
54978;BME280;40873;47.522;19.106;2023-04-15T00:03:28;99322.59;;;5.50;100.00
54978;BME280;40873;47.522;19.106;2023-04-15T00:05:56;99327.88;;;5.49;100.00
54978;BME280;40873;47.522;19.106;2023-04-15T00:08:23;99322.66;;;5.49;100.00
54978;BME280;40873;47.522;19.106;2023-04-15T00:10:51;99319.13;;;5.50;100.00
54978;BME280;40873;47.522;19.106;2023-04-15T00:13:18;99323.16;;;5.56;100.00
54978;BME280;40873;47.522;19.106;2023-04-15T00:15:46;99329.16;;;5.58;100.00
54978;BME280;40873;47.522;19.106;2023-04-15T00:18:13;99331.25;;;5.67;100.00
54978;BME280;40873;47.522;19.106;2023-04-15T00:20:40;99330.41;;;5.66;100.00
54978;BME280;40873;47.522;19.106;2023-04-15T00:23:07;99329.47;;;5.67;100.00
54978;BME280;40873;47.522;19.106;2023-04-15T00:25:34;99338.16;;;5.68;100.00
54978;BME280;40873;47.522;19.106;2023-04-15T00:28:01;99324.84;;;5.72;100.00
54978;BME280;40873;47.522;19.106;2023-04-15T00:30:28;99319.75;;;5.69;100.00
54978;BME280;40873;47.522;19.106;2023-04-15T00:32:55;99327.78;;;5.66;100.00
54978;BME280;40873;47.522;19.106;2023-04-15T00:35:22;99318.25;;;5.65;100.00
54978;BME280;40873;47.522;19.106;2023-04-15T00:37:50;99314.81;;;5.65;100.00
54978;BME280;40873;47.522;19.106;2023-04-15T00:40:18;99323.66;;;5.62;100.00
54978;BME280;40873;47.522;19.106;2023-04-15T00:42:46;99322.66;;;5.65;100.00
54978;BME280;40873;47.522;19.106;2023-04-15T00:45:14;99323.66;;;5.62;100.00
54978;BME280;40873;47.522;19.106;2023-04-15T00:47:42;99313.97;;;5.64;100.00
54978;BME280;40873;47.522;19.106;2023-04-15T00:50:10;99317.41;;;5.65;100.00
54978;BME280;40873;47.522;19.106;2023-04-15T00:52:39;99311.25;;;5.66;100.00
54978;BME280;40873;47.522;19.106;2023-04-15T00:55:07;99310.22;;;5.68;100.00
54978;BME280;40873;47.522;19.106;2023-04-15T00:57:34;99317.31;;;5.66;100.00
54978;BME280;40873;47.522;19.106;2023-04-15T01:00:02;99317.41;;;5.65;100.00
54978;BME280;40873;47.522;19.106;2023-04-15T01:02:30;99300.03;;;5.64;100.00
54978;BME280;40873;47.522;19.106;2023-04-15T01:04:58;99307.38;;;5.57;100.00
54978;BME280;40873;47.522;19.106;2023-04-15T01:07:26;99299.44;;;5.59;100.00
54978;BME280;40873;47.522;19.106;2023-04-15T01:09:53;99303.06;;;5.56;100.00
54978;BME280;40873;47.522;19.106;2023-04-15T01:12:21;99294.31;;;5.57;100.00
54978;BME280;40873;47.522;19.106;2023-04-15T01:14:49;99305.44;;;5.61;100.00
54978;BME280;40873;47.522;19.106;2023-04-15T01:17:16;99293.97;;;5.63;100.00
54978;BME280;40873;47.522;19.106;2023-04-15T01:19:43;99298.50;;;5.60;100.00
54978;BME280;40873;47.522;19.106;2023-04-15T01:22:10;99301.81;;;5.63;100.00
54978;BME280;40873;47.522;19.106;2023-04-15T01:24:37;99302.72;;;5.62;100.00
54978;BME280;40873;47.522;19.106;2023-04-15T01:27:05;99288.78;;;5.62;100.00
54978;BME280;40873;47.522;19.106;2023-04-15T01:29:36;99293.03;;;5.64;100.00
54978;BME280;40873;47.522;19.106;2023-04-15T01:32:04;99303.50;;;5.64;100.00
54978;BME280;40873;47.522;19.106;2023-04-15T01:34:31;99298.06;;;5.67;100.00
54978;BME280;40873;47.522;19.106;2023-04-15T01:37:01;99305.19;;;5.65;100.00
54978;BME280;40873;47.522;19.106;2023-04-15T01:39:28;99306.94;;;5.65;100.00
54978;BME280;40873;47.522;19.106;2023-04-15T01:41:55;99305.28;;;5.64;100.00
54978;BME280;40873;47.522;19.106;2023-04-15T01:44:23;99311.34;;;5.64;100.00
54978;BME280;40873;47.522;19.106;2023-04-15T01:46:49;99314.13;;;5.61;100.00
54978;BME280;40873;47.522;19.106;2023-04-15T01:49:17;99313.88;;;5.66;100.00
54978;BME280;40873;47.522;19.106;2023-04-15T01:51:44;99304.06;;;5.69;100.00
54978;BME280;40873;47.522;19.106;2023-04-15T01:54:11;99312.09;;;5.66;100.00
54978;BME280;40873;47.522;19.106;2023-04-15T01:56:38;99306.59;;;5.71;100.00
54978;BME280;40873;47.522;19.106;2023-04-15T01:59:05;99308.19;;;5.73;100.00
54978;BME280;40873;47.522;19.106;2023-04-15T02:01:32;99313.63;;;5.70;100.00
54978;BME280;40873;47.522;19.106;2023-04-15T02:03:59;99314.63;;;5.68;100.00
54978;BME280;40873;47.522;19.106;2023-04-15T02:06:26;99308.53;;;5.67;100.00
54978;BME280;40873;47.522;19.106;2023-04-15T02:08:54;99314.47;;;5.71;100.00
54978;BME280;40873;47.522;19.106;2023-04-15T02:11:20;99310.13;;;5.70;100.00
54978;BME280;40873;47.522;19.106;2023-04-15T02:13:49;99313.44;;;5.73;100.00
54978;BME280;40873;47.522;19.106;2023-04-15T02:16:19;99312.50;;;5.74;100.00
54978;BME280;40873;47.522;19.106;2023-04-15T02:18:47;99310.63;;;5.76;100.00
54978;BME280;40873;47.522;19.106;2023-04-15T02:21:14;99312.41;;;5.76;100.00
54978;BME280;40873;47.522;19.106;2023-04-15T02:23:41;99314.28;;;5.74;100.00
54978;BME280;40873;47.522;19.106;2023-04-15T02:26:09;99308.00;;;5.76;100.00
54978;BME280;40873;47.522;19.106;2023-04-15T02:28:36;99302.78;;;5.76;100.00
54978;BME280;40873;47.522;19.106;2023-04-15T02:31:06;99307.84;;;5.80;100.00
54978;BME280;40873;47.522;19.106;2023-04-15T02:33:34;99312.16;;;5.81;100.00
54978;BME280;40873;47.522;19.106;2023-04-15T02:36:01;99322.88;;;5.76;100.00
54978;BME280;40873;47.522;19.106;2023-04-15T02:38:28;99330.72;;;5.76;100.00
54978;BME280;40873;47.522;19.106;2023-04-15T02:40:56;99328.44;;;5.70;100.00
54978;BME280;40873;47.522;19.106;2023-04-15T02:43:23;99319.59;;;5.72;100.00
54978;BME280;40873;47.522;19.106;2023-04-15T02:45:50;99325.56;;;5.74;100.00
54978;BME280;40873;47.522;19.106;2023-04-15T02:48:18;99320.09;;;5.79;100.00
54978;BME280;40873;47.522;19.106;2023-04-15T02:50:45;99322.53;;;5.82;100.00
54978;BME280;40873;47.522;19.106;2023-04-15T02:53:13;99324.69;;;5.90;100.00
54978;BME280;40873;47.522;19.106;2023-04-15T02:55:40;99327.31;;;5.90;100.00
54978;BME280;40873;47.522;19.106;2023-04-15T02:58:08;99320.50;;;5.87;100.00
54978;BME280;40873;47.522;19.106;2023-04-15T03:00:35;99324.69;;;5.90;100.00
54978;BME280;40873;47.522;19.106;2023-04-15T03:03:04;99318.50;;;5.92;100.00
54978;BME280;40873;47.522;19.106;2023-04-15T03:05:31;99314.09;;;5.93;100.00
54978;BME280;40873;47.522;19.106;2023-04-15T03:07:59;99314.09;;;5.93;100.00
54978;BME280;40873;47.522;19.106;2023-04-15T03:10:27;99313.75;;;5.99;100.00
54978;BME280;40873;47.522;19.106;2023-04-15T03:12:54;99312.91;;;5.98;100.00
54978;BME280;40873;47.522;19.106;2023-04-15T03:15:21;99305.31;;;5.94;100.00
54978;BME280;40873;47.522;19.106;2023-04-15T03:17:48;99301.94;;;5.92;100.00
54978;BME280;40873;47.522;19.106;2023-04-15T03:20:16;99295.91;;;5.90;100.00
54978;BME280;40873;47.522;19.106;2023-04-15T03:22:43;99310.72;;;5.91;100.00
54978;BME280;40873;47.522;19.106;2023-04-15T03:25:10;99315.03;;;5.92;100.00
54978;BME280;40873;47.522;19.106;2023-04-15T03:27:37;99312.31;;;5.93;100.00
54978;BME280;40873;47.522;19.106;2023-04-15T03:30:05;99302.84;;;5.91;100.00
54978;BME280;40873;47.522;19.106;2023-04-15T03:32:32;99306.25;;;5.93;100.00
54978;BME280;40873;47.522;19.106;2023-04-15T03:34:59;99309.50;;;5.96;100.00
54978;BME280;40873;47.522;19.106;2023-04-15T03:37:26;99313.75;;;5.99;100.00
54978;BME280;40873;47.522;19.106;2023-04-15T03:39:53;99310.00;;;6.03;100.00
54978;BME280;40873;47.522;19.106;2023-04-15T03:42:20;99315.44;;;6.00;100.00
54978;BME280;40873;47.522;19.106;2023-04-15T03:44:47;99323.00;;;6.04;100.00
54978;BME280;40873;47.522;19.106;2023-04-15T03:47:14;99319.19;;;6.10;100.00
54978;BME280;40873;47.522;19.106;2023-04-15T03:49:41;99323.41;;;6.13;100.00
54978;BME280;40873;47.522;19.106;2023-04-15T03:52:08;99315.72;;;6.10;100.00
54978;BME280;40873;47.522;19.106;2023-04-15T03:54:35;99320.03;;;6.11;100.00
54978;BME280;40873;47.522;19.106;2023-04-15T03:57:02;99305.56;;;6.19;100.00
54978;BME280;40873;47.522;19.106;2023-04-15T03:59:30;99310.31;;;6.13;100.00
54978;BME280;40873;47.522;19.106;2023-04-15T04:01:57;99312.09;;;6.12;100.00
54978;BME280;40873;47.522;19.106;2023-04-15T04:04:24;99312.25;;;6.09;100.00
54978;BME280;40873;47.522;19.106;2023-04-15T04:06:51;99307.78;;;6.11;100.00
54978;BME280;40873;47.522;19.106;2023-04-15T04:09:18;99316.66;;;6.09;100.00
54978;BME280;40873;47.522;19.106;2023-04-15T04:11:45;99310.78;;;6.05;100.00
54978;BME280;40873;47.522;19.106;2023-04-15T04:14:12;99310.50;;;6.10;100.00
54978;BME280;40873;47.522;19.106;2023-04-15T04:16:39;99314.88;;;6.09;100.00
54978;BME280;40873;47.522;19.106;2023-04-15T04:19:06;99317.00;;;6.02;100.00
54978;BME280;40873;47.522;19.106;2023-04-15T04:21:33;99310.78;;;6.05;100.00
54978;BME280;40873;47.522;19.106;2023-04-15T04:24:00;99308.06;;;6.07;100.00
54978;BME280;40873;47.522;19.106;2023-04-15T04:26:27;99305.34;;;6.08;100.00
54978;BME280;40873;47.522;19.106;2023-04-15T04:28:54;99310.38;;;6.11;100.00
54978;BME280;40873;47.522;19.106;2023-04-15T04:31:22;99311.06;;;6.15;100.00
54978;BME280;40873;47.522;19.106;2023-04-15T04:33:48;99303.03;;;6.18;100.00
54978;BME280;40873;47.522;19.106;2023-04-15T04:36:16;99299.03;;;6.26;100.00
54978;BME280;40873;47.522;19.106;2023-04-15T04:38:42;99301.72;;;6.25;100.00
54978;BME280;40873;47.522;19.106;2023-04-15T04:41:09;99299.03;;;6.26;100.00
54978;BME280;40873;47.522;19.106;2023-04-15T04:43:36;99300.25;;;6.35;100.00
54978;BME280;40873;47.522;19.106;2023-04-15T04:46:03;99305.03;;;6.43;100.00
54978;BME280;40873;47.522;19.106;2023-04-15T04:48:30;99310.09;;;6.46;100.00
54978;BME280;40873;47.522;19.106;2023-04-15T04:50:58;99310.56;;;6.52;100.00
54978;BME280;40873;47.522;19.106;2023-04-15T04:53:24;99307.41;;;6.62;100.00
54978;BME280;40873;47.522;19.106;2023-04-15T04:55:52;99306.94;;;6.69;100.00
54978;BME280;40873;47.522;19.106;2023-04-15T04:58:19;99305.53;;;6.78;100.00
54978;BME280;40873;47.522;19.106;2023-04-15T05:00:46;99302.44;;;6.85;100.00
54978;BME280;40873;47.522;19.106;2023-04-15T05:03:13;99300.63;;;7.00;100.00
54978;BME280;40873;47.522;19.106;2023-04-15T05:05:40;99304.72;;;7.19;100.00
54978;BME280;40873;47.522;19.106;2023-04-15T05:08:07;99299.47;;;7.33;100.00
54978;BME280;40873;47.522;19.106;2023-04-15T05:10:35;99310.19;;;7.42;100.00
54978;BME280;40873;47.522;19.106;2023-04-15T05:13:01;99311.03;;;7.43;100.00
54978;BME280;40873;47.522;19.106;2023-04-15T05:15:28;99315.63;;;7.54;100.00
54978;BME280;40873;47.522;19.106;2023-04-15T05:17:56;99312.69;;;7.58;100.00
54978;BME280;40873;47.522;19.106;2023-04-15T05:20:23;99308.81;;;7.64;100.00
54978;BME280;40873;47.522;19.106;2023-04-15T05:22:50;99304.16;;;7.82;100.00
54978;BME280;40873;47.522;19.106;2023-04-15T05:25:17;99316.25;;;7.84;100.00
54978;BME280;40873;47.522;19.106;2023-04-15T05:27:44;99308.28;;;7.98;100.00
54978;BME280;40873;47.522;19.106;2023-04-15T05:30:11;99300.03;;;8.17;100.00
54978;BME280;40873;47.522;19.106;2023-04-15T05:32:39;99310.88;;;8.25;100.00
54978;BME280;40873;47.522;19.106;2023-04-15T05:35:06;99307.50;;;8.23;100.00
54978;BME280;40873;47.522;19.106;2023-04-15T05:37:34;99314.22;;;8.15;100.00
54978;BME280;40873;47.522;19.106;2023-04-15T05:40:01;99314.13;;;8.16;100.00
54978;BME280;40873;47.522;19.106;2023-04-15T05:42:29;99313.03;;;7.93;100.00
54978;BME280;40873;47.522;19.106;2023-04-15T05:44:57;99319.63;;;7.99;100.00
54978;BME280;40873;47.522;19.106;2023-04-15T05:47:23;99323.50;;;7.81;100.00
54978;BME280;40873;47.522;19.106;2023-04-15T05:49:51;99320.69;;;7.96;100.00
54978;BME280;40873;47.522;19.106;2023-04-15T05:52:17;99324.81;;;7.74;100.00
54978;BME280;40873;47.522;19.106;2023-04-15T05:54:44;99324.66;;;7.89;100.00
54978;BME280;40873;47.522;19.106;2023-04-15T05:57:12;99325.72;;;8.00;100.00
54978;BME280;40873;47.522;19.106;2023-04-15T05:59:39;99330.00;;;8.15;100.00
54978;BME280;40873;47.522;19.106;2023-04-15T06:02:09;99331.47;;;8.32;100.00
54978;BME280;40873;47.522;19.106;2023-04-15T06:04:36;99325.22;;;8.47;100.00
54978;BME280;40873;47.522;19.106;2023-04-15T06:07:03;99334.38;;;8.67;100.00
54978;BME280;40873;47.522;19.106;2023-04-15T06:09:30;99339.00;;;8.50;100.00
54978;BME280;40873;47.522;19.106;2023-04-15T06:11:57;99338.59;;;8.69;100.00
54978;BME280;40873;47.522;19.106;2023-04-15T06:14:25;99336.59;;;8.73;100.00
54978;BME280;40873;47.522;19.106;2023-04-15T06:16:51;99344.41;;;8.22;100.00
54978;BME280;40873;47.522;19.106;2023-04-15T06:19:18;99345.53;;;8.18;100.00
54978;BME280;40873;47.522;19.106;2023-04-15T06:21:46;99345.31;;;8.08;100.00
54978;BME280;40873;47.522;19.106;2023-04-15T06:24:13;99350.13;;;8.02;100.00
54978;BME280;40873;47.522;19.106;2023-04-15T06:26:40;99350.78;;;8.18;100.00
54978;BME280;40873;47.522;19.106;2023-04-15T06:29:07;99358.59;;;8.32;100.00
54978;BME280;40873;47.522;19.106;2023-04-15T06:31:34;99361.97;;;8.34;100.00
54978;BME280;40873;47.522;19.106;2023-04-15T06:34:01;99360.34;;;8.59;100.00
54978;BME280;40873;47.522;19.106;2023-04-15T06:36:28;99360.25;;;8.73;100.00
54978;BME280;40873;47.522;19.106;2023-04-15T06:38:55;99367.09;;;8.75;100.00
54978;BME280;40873;47.522;19.106;2023-04-15T06:41:23;99367.69;;;8.54;100.00
54978;BME280;40873;47.522;19.106;2023-04-15T06:43:50;99366.66;;;8.56;100.00
54978;BME280;40873;47.522;19.106;2023-04-15T06:46:17;99369.47;;;8.40;100.00
54978;BME280;40873;47.522;19.106;2023-04-15T06:48:44;99371.19;;;8.27;100.00
54978;BME280;40873;47.522;19.106;2023-04-15T06:51:11;99375.06;;;8.36;100.00
54978;BME280;40873;47.522;19.106;2023-04-15T06:53:38;99383.09;;;8.33;100.00
54978;BME280;40873;47.522;19.106;2023-04-15T06:56:07;99378.19;;;8.41;100.00
54978;BME280;40873;47.522;19.106;2023-04-15T06:58:35;99364.78;;;8.58;100.00
54978;BME280;40873;47.522;19.106;2023-04-15T07:01:03;99370.47;;;8.77;100.00
54978;BME280;40873;47.522;19.106;2023-04-15T07:03:30;99374.53;;;8.69;100.00
54978;BME280;40873;47.522;19.106;2023-04-15T07:05:58;99370.03;;;8.96;100.00
54978;BME280;40873;47.522;19.106;2023-04-15T07:08:25;99382.13;;;8.86;100.00
54978;BME280;40873;47.522;19.106;2023-04-15T07:10:52;99377.00;;;8.97;100.00
54978;BME280;40873;47.522;19.106;2023-04-15T07:13:19;99372.75;;;8.82;100.00
54978;BME280;40873;47.522;19.106;2023-04-15T07:15:46;99369.53;;;8.78;100.00
54978;BME280;40873;47.522;19.106;2023-04-15T07:18:13;99377.19;;;8.56;100.00
54978;BME280;40873;47.522;19.106;2023-04-15T07:20:41;99377.94;;;8.71;100.00
54978;BME280;40873;47.522;19.106;2023-04-15T07:23:08;99376.97;;;8.59;100.00
54978;BME280;40873;47.522;19.106;2023-04-15T07:25:35;99377.06;;;8.58;100.00
54978;BME280;40873;47.522;19.106;2023-04-15T07:28:02;99375.72;;;8.77;100.00
54978;BME280;40873;47.522;19.106;2023-04-15T07:30:29;99381.19;;;9.00;100.00
54978;BME280;40873;47.522;19.106;2023-04-15T07:32:57;99378.44;;;9.14;100.00
54978;BME280;40873;47.522;19.106;2023-04-15T07:35:24;99379.56;;;9.36;100.00
54978;BME280;40873;47.522;19.106;2023-04-15T07:37:52;99382.38;;;9.45;100.00
54978;BME280;40873;47.522;19.106;2023-04-15T07:40:22;99385.94;;;9.57;100.00
54978;BME280;40873;47.522;19.106;2023-04-15T07:42:50;99381.16;;;9.75;100.00
54978;BME280;40873;47.522;19.106;2023-04-15T07:45:17;99389.22;;;9.84;100.00
54978;BME280;40873;47.522;19.106;2023-04-15T07:47:44;99395.16;;;9.75;100.00
54978;BME280;40873;47.522;19.106;2023-04-15T07:50:11;99391.41;;;9.67;100.00
54978;BME280;40873;47.522;19.106;2023-04-15T07:52:38;99383.88;;;10.21;100.00
54978;BME280;40873;47.522;19.106;2023-04-15T07:55:05;99386.47;;;10.23;100.00
54978;BME280;40873;47.522;19.106;2023-04-15T07:57:34;99386.91;;;10.63;100.00
54978;BME280;40873;47.522;19.106;2023-04-15T08:00:03;99376.22;;;11.00;100.00
54978;BME280;40873;47.522;19.106;2023-04-15T08:02:33;99384.22;;;10.98;97.96
54978;BME280;40873;47.522;19.106;2023-04-15T08:05:03;99380.50;;;10.78;96.74
54978;BME280;40873;47.522;19.106;2023-04-15T08:07:31;99389.47;;;10.64;98.42
54978;BME280;40873;47.522;19.106;2023-04-15T08:09:58;99391.19;;;10.41;98.92
54978;BME280;40873;47.522;19.106;2023-04-15T08:12:25;99386.41;;;10.47;100.00
54978;BME280;40873;47.522;19.106;2023-04-15T08:14:52;99394.06;;;10.50;99.01
54978;BME280;40873;47.522;19.106;2023-04-15T08:17:19;99389.44;;;10.53;100.00
54978;BME280;40873;47.522;19.106;2023-04-15T08:19:46;99389.63;;;10.85;100.00
54978;BME280;40873;47.522;19.106;2023-04-15T08:22:14;99385.06;;;10.87;96.21
54978;BME280;40873;47.522;19.106;2023-04-15T08:24:44;99390.19;;;10.78;95.58
54978;BME280;40873;47.522;19.106;2023-04-15T08:27:11;99386.84;;;10.98;93.52
54978;BME280;40873;47.522;19.106;2023-04-15T08:29:41;99396.09;;;10.81;94.21
54978;BME280;40873;47.522;19.106;2023-04-15T08:32:08;99393.91;;;10.75;92.20
54978;BME280;40873;47.522;19.106;2023-04-15T08:34:35;99397.41;;;10.98;94.47
54978;BME280;40873;47.522;19.106;2023-04-15T08:37:02;99398.16;;;11.11;92.59
54978;BME280;40873;47.522;19.106;2023-04-15T08:39:29;99395.66;;;11.43;90.24
54978;BME280;40873;47.522;19.106;2023-04-15T08:42:01;99395.59;;;11.88;88.99
54978;BME280;40873;47.522;19.106;2023-04-15T08:44:32;99408.25;;;11.51;88.49
54978;BME280;40873;47.522;19.106;2023-04-15T08:47:00;99401.75;;;10.99;86.13
54978;BME280;40873;47.522;19.106;2023-04-15T08:49:32;99406.34;;;10.62;89.93
54978;BME280;40873;47.522;19.106;2023-04-15T08:52:01;99405.75;;;10.69;90.70
54978;BME280;40873;47.522;19.106;2023-04-15T08:54:30;99400.03;;;10.76;92.24
54978;BME280;40873;47.522;19.106;2023-04-15T08:56:57;99413.34;;;10.74;89.35
54978;BME280;40873;47.522;19.106;2023-04-15T08:59:24;99418.94;;;10.69;89.66
54978;BME280;40873;47.522;19.106;2023-04-15T09:01:51;99410.88;;;10.95;88.38
54978;BME280;40873;47.522;19.106;2023-04-15T09:04:19;99407.03;;;10.99;89.30
54978;BME280;40873;47.522;19.106;2023-04-15T09:06:46;99410.41;;;11.01;89.80
54978;BME280;40873;47.522;19.106;2023-04-15T09:09:13;99403.69;;;11.31;88.10
54978;BME280;40873;47.522;19.106;2023-04-15T09:11:40;99412.56;;;11.52;87.84
54978;BME280;40873;47.522;19.106;2023-04-15T09:14:08;99410.28;;;11.70;84.54
54978;BME280;40873;47.522;19.106;2023-04-15T09:16:57;99418.06;;;11.94;82.91
54978;BME280;40873;47.522;19.106;2023-04-15T09:19:25;99414.59;;;11.60;85.35
54978;BME280;40873;47.522;19.106;2023-04-15T09:21:54;99418.94;;;11.38;84.83
54978;BME280;40873;47.522;19.106;2023-04-15T09:24:25;99419.03;;;11.25;81.40
54978;BME280;40873;47.522;19.106;2023-04-15T09:26:59;99419.50;;;11.19;82.92
54978;BME280;40873;47.522;19.106;2023-04-15T09:29:26;99412.44;;;11.09;84.24
54978;BME280;40873;47.522;19.106;2023-04-15T09:31:53;99410.28;;;11.14;85.14
54978;BME280;40873;47.522;19.106;2023-04-15T09:34:20;99407.88;;;11.33;85.59
54978;BME280;40873;47.522;19.106;2023-04-15T09:36:53;99405.59;;;11.85;83.29
54978;BME280;40873;47.522;19.106;2023-04-15T09:39:20;99416.31;;;12.15;80.54
54978;BME280;40873;47.522;19.106;2023-04-15T09:42:06;99409.75;;;11.98;80.39
54978;BME280;40873;47.522;19.106;2023-04-15T09:44:33;99407.50;;;11.71;81.66
54978;BME280;40873;47.522;19.106;2023-04-15T09:47:01;99410.63;;;11.76;80.98
54978;BME280;40873;47.522;19.106;2023-04-15T09:49:28;99408.34;;;11.72;81.08
54978;BME280;40873;47.522;19.106;2023-04-15T09:52:00;99409.09;;;11.63;81.62
54978;BME280;40873;47.522;19.106;2023-04-15T09:54:33;99411.94;;;11.82;81.37
54978;BME280;40873;47.522;19.106;2023-04-15T09:57:08;99416.63;;;11.90;78.87
54978;BME280;40873;47.522;19.106;2023-04-15T09:59:37;99413.13;;;11.67;78.66
54978;BME280;40873;47.522;19.106;2023-04-15T10:02:05;99422.72;;;11.79;78.31
54978;BME280;40873;47.522;19.106;2023-04-15T10:04:34;99411.94;;;11.93;78.20
54978;BME280;40873;47.522;19.106;2023-04-15T10:07:04;99416.34;;;12.04;77.95
54978;BME280;40873;47.522;19.106;2023-04-15T10:09:32;99415.03;;;11.98;78.44
54978;BME280;40873;47.522;19.106;2023-04-15T10:12:02;99427.44;;;11.87;80.40
54978;BME280;40873;47.522;19.106;2023-04-15T10:14:34;99417.81;;;11.74;81.16
54978;BME280;40873;47.522;19.106;2023-04-15T10:17:03;99418.44;;;11.22;84.04
54978;BME280;40873;47.522;19.106;2023-04-15T10:19:32;99433.81;;;11.06;85.96
54978;BME280;40873;47.522;19.106;2023-04-15T10:22:00;99423.38;;;11.15;85.91
54978;BME280;40873;47.522;19.106;2023-04-15T10:24:27;99425.28;;;11.02;86.14
54978;BME280;40873;47.522;19.106;2023-04-15T10:26:58;99422.00;;;10.87;87.64
54978;BME280;40873;47.522;19.106;2023-04-15T10:29:25;99429.31;;;10.84;88.35
54978;BME280;40873;47.522;19.106;2023-04-15T10:31:58;99432.84;;;10.60;91.57
54978;BME280;40873;47.522;19.106;2023-04-15T10:34:26;99421.53;;;10.47;94.33
54978;BME280;40873;47.522;19.106;2023-04-15T10:37:03;99432.25;;;10.68;93.69
54978;BME280;40873;47.522;19.106;2023-04-15T10:42:14;99429.00;;;11.11;90.81
54978;BME280;40873;47.522;19.106;2023-04-15T10:44:43;99423.72;;;11.22;90.48
54978;BME280;40873;47.522;19.106;2023-04-15T10:47:16;99428.88;;;11.23;89.34
54978;BME280;40873;47.522;19.106;2023-04-15T10:52:22;99434.19;;;11.35;87.93
54978;BME280;40873;47.522;19.106;2023-04-15T10:54:49;99438.13;;;11.40;87.29
54978;BME280;40873;47.522;19.106;2023-04-15T10:57:22;99437.28;;;11.06;89.50
54978;BME280;40873;47.522;19.106;2023-04-15T11:02:44;99441.44;;;10.86;93.47
54978;BME280;40873;47.522;19.106;2023-04-15T11:05:14;99448.78;;;10.94;93.79
54978;BME280;40873;47.522;19.106;2023-04-15T11:07:54;99450.81;;;10.55;96.11
54978;BME280;40873;47.522;19.106;2023-04-15T11:12:55;99465.66;;;10.08;100.00
54978;BME280;40873;47.522;19.106;2023-04-15T11:15:33;99461.91;;;9.87;100.00
54978;BME280;40873;47.522;19.106;2023-04-15T11:18:21;99463.41;;;10.15;100.00
54978;BME280;40873;47.522;19.106;2023-04-15T11:20:52;99464.34;;;10.27;100.00
54978;BME280;40873;47.522;19.106;2023-04-15T11:23:33;99468.72;;;10.39;100.00
54978;BME280;40873;47.522;19.106;2023-04-15T11:26:01;99457.88;;;10.55;100.00
54978;BME280;40873;47.522;19.106;2023-04-15T11:28:31;99458.97;;;10.98;99.86
54978;BME280;40873;47.522;19.106;2023-04-15T11:31:08;99452.41;;;11.15;95.76
54978;BME280;40873;47.522;19.106;2023-04-15T11:33:44;99462.03;;;11.39;93.30
54978;BME280;40873;47.522;19.106;2023-04-15T11:36:11;99458.16;;;11.54;92.36
54978;BME280;40873;47.522;19.106;2023-04-15T11:38:43;99457.84;;;11.47;93.26
54978;BME280;40873;47.522;19.106;2023-04-15T11:41:10;99455.91;;;11.49;93.11
54978;BME280;40873;47.522;19.106;2023-04-15T11:43:37;99459.59;;;11.24;93.40
54978;BME280;40873;47.522;19.106;2023-04-15T11:46:04;99463.56;;;11.30;91.54
54978;BME280;40873;47.522;19.106;2023-04-15T11:48:33;99461.28;;;11.25;90.60
54978;BME280;40873;47.522;19.106;2023-04-15T11:51:05;99465.78;;;10.90;91.32
54978;BME280;40873;47.522;19.106;2023-04-15T11:56:22;99471.19;;;10.88;91.05
54978;BME280;40873;47.522;19.106;2023-04-15T11:58:55;99467.25;;;10.94;90.23
54978;BME280;40873;47.522;19.106;2023-04-15T12:01:34;99467.25;;;11.05;90.61
54978;BME280;40873;47.522;19.106;2023-04-15T12:04:10;99470.47;;;10.97;90.28
54978;BME280;40873;47.522;19.106;2023-04-15T12:06:37;99472.72;;;10.91;91.60
54978;BME280;40873;47.522;19.106;2023-04-15T12:11:48;99465.50;;;11.39;91.60
54978;BME280;40873;47.522;19.106;2023-04-15T12:14:23;99477.63;;;11.53;90.09
54978;BME280;40873;47.522;19.106;2023-04-15T12:16:52;99463.81;;;11.38;89.84
54978;BME280;40873;47.522;19.106;2023-04-15T12:19:40;99468.53;;;11.91;87.17
54978;BME280;40873;47.522;19.106;2023-04-15T12:22:15;99476.78;;;11.75;88.55
54978;BME280;40873;47.522;19.106;2023-04-15T12:24:44;99464.72;;;12.27;86.73
54978;BME280;40873;47.522;19.106;2023-04-15T12:27:15;99468.06;;;12.29;84.27
54978;BME280;40873;47.522;19.106;2023-04-15T12:29:43;99477.69;;;13.15;82.60
54978;BME280;40873;47.522;19.106;2023-04-15T12:32:10;99475.19;;;12.60;80.05
54978;BME280;40873;47.522;19.106;2023-04-15T12:34:43;99481.38;;;11.84;84.58
54978;BME280;40873;47.522;19.106;2023-04-15T12:37:11;99471.19;;;11.91;84.63
54978;BME280;40873;47.522;19.106;2023-04-15T12:39:44;99480.03;;;11.67;83.71
54978;BME280;40873;47.522;19.106;2023-04-15T12:42:11;99481.09;;;11.31;86.42
54978;BME280;40873;47.522;19.106;2023-04-15T12:44:39;99478.31;;;11.10;87.65
54978;BME280;40873;47.522;19.106;2023-04-15T12:47:07;99485.88;;;11.26;88.28
54978;BME280;40873;47.522;19.106;2023-04-15T12:49:35;99476.75;;;11.08;91.22
54978;BME280;40873;47.522;19.106;2023-04-15T12:52:02;99486.00;;;11.24;92.00
54978;BME280;40873;47.522;19.106;2023-04-15T12:54:30;99490.78;;;11.19;90.44
54978;BME280;40873;47.522;19.106;2023-04-15T12:56:58;99488.44;;;11.28;90.89
54978;BME280;40873;47.522;19.106;2023-04-15T12:59:25;99490.31;;;11.25;90.60
54978;BME280;40873;47.522;19.106;2023-04-15T13:01:52;99490.81;;;11.31;90.79
54978;BME280;40873;47.522;19.106;2023-04-15T13:04:20;99493.81;;;11.26;89.57
54978;BME280;40873;47.522;19.106;2023-04-15T13:06:48;99497.88;;;11.08;90.90
54978;BME280;40873;47.522;19.106;2023-04-15T13:09:15;99498.38;;;11.13;90.18
54978;BME280;40873;47.522;19.106;2023-04-15T13:11:42;99492.94;;;11.03;92.39